Time;durP1;ratioP1;P1;durP2;ratioP2;P2;SDS_P1;SDS_P2;PMS_P1;PMS_P2;Temp;Humidity;BMP_temperature;BMP_pressure;BME280_temperature;BME280_humidity;BME280_pressure;Samples;Min_cycle;Max_cycle;Signal;HPM_P1;HPM_P2
2022/07/05 00:01:10;;;;;;;;;;;14.50;99.90;;;;;;5068090;28;19964;-70
2022/07/05 00:03:37;;;;;;;;;;;14.50;99.90;;;;;;5063726;28;20011;-70
2022/07/05 00:06:04;;;;;;;;;;;14.40;99.90;;;;;;5060469;28;20395;-70
2022/07/05 00:08:31;;;;;;;;;;;14.40;99.90;;;;;;5060656;28;20003;-70
2022/07/05 00:10:57;;;;;;;;;;;14.40;99.90;;;;;;5060640;28;20532;-70
2022/07/05 00:13:25;;;;;;;;;;;14.30;99.90;;;;;;5064948;28;20023;-70
2022/07/05 00:15:52;;;;;;;;;;;14.30;99.90;;;;;;5060822;28;19925;-69
2022/07/05 00:18:19;;;;;;;;;;;14.20;99.90;;;;;;5060093;28;19928;-69
2022/07/05 00:20:46;;;;;;;;;;;14.20;99.90;;;;;;5064131;28;19971;-70
2022/07/05 00:23:13;;;;;;;;;;;14.20;99.90;;;;;;5057866;28;19925;-71
2022/07/05 00:25:39;;;;;;;;;;;14.20;99.90;;;;;;5058767;28;19932;-70
2022/07/05 00:28:06;;;;;;;;;;;14.20;99.90;;;;;;5061640;28;20003;-70
2022/07/05 00:30:34;;;;;;;;;;;14.10;99.90;;;;;;5061428;28;20003;-70
2022/07/05 00:33:01;;;;;;;;;;;14.20;99.90;;;;;;5061562;28;19924;-69
2022/07/05 00:35:28;;;;;;;;;;;14.10;99.90;;;;;;5061585;28;20023;-70
2022/07/05 00:37:54;;;;;;;;;;;14.10;99.90;;;;;;5062583;28;20022;-69
2022/07/05 00:40:21;;;;;;;;;;;14.10;99.90;;;;;;5061836;28;20467;-70
2022/07/05 00:42:48;;;;;;;;;;;14.10;99.90;;;;;;5060700;28;19932;-69
2022/07/05 00:45:14;;;;;;;;;;;14.10;99.90;;;;;;5061643;28;19928;-70
2022/07/05 00:47:42;;;;;;;;;;;14.10;99.90;;;;;;5057459;28;19956;-70
2022/07/05 00:50:09;;;;;;;;;;;14.10;99.90;;;;;;5055626;28;19978;-70
2022/07/05 00:52:36;;;;;;;;;;;14.00;99.90;;;;;;5062604;28;19939;-69
2022/07/05 00:55:03;;;;;;;;;;;14.00;99.90;;;;;;5060926;28;20019;-71
2022/07/05 00:57:30;;;;;;;;;;;13.90;99.90;;;;;;5062307;28;20011;-70
2022/07/05 00:59:56;;;;;;;;;;;13.90;99.90;;;;;;5060863;28;20015;-70
2022/07/05 01:02:23;;;;;;;;;;;13.80;99.90;;;;;;5060592;28;20067;-69
2022/07/05 01:04:51;;;;;;;;;;;13.80;99.90;;;;;;5061539;28;19924;-70
2022/07/05 01:07:19;;;;;;;;;;;13.70;99.90;;;;;;5058661;28;20021;-70
2022/07/05 01:09:46;;;;;;;;;;;13.70;99.90;;;;;;5062202;28;20023;-70
2022/07/05 01:12:13;;;;;;;;;;;13.70;99.90;;;;;;5058182;28;19960;-70
2022/07/05 01:14:41;;;;;;;;;;;13.60;99.90;;;;;;5060488;28;19972;-69
2022/07/05 01:17:08;;;;;;;;;;;13.60;99.90;;;;;;5053323;28;19935;-70
2022/07/05 01:19:35;;;;;;;;;;;13.60;99.90;;;;;;5064257;28;19956;-71
2022/07/05 01:22:04;;;;;;;;;;;13.60;99.90;;;;;;5059564;28;19978;-70
2022/07/05 01:24:32;;;;;;;;;;;13.60;99.90;;;;;;5058725;28;19924;-70
2022/07/05 01:26:59;;;;;;;;;;;13.60;99.90;;;;;;5060848;28;19925;-71
2022/07/05 01:29:26;;;;;;;;;;;13.50;99.90;;;;;;5060748;28;19960;-70
2022/07/05 01:31:53;;;;;;;;;;;13.50;99.90;;;;;;5058260;28;20027;-71
2022/07/05 01:34:20;;;;;;;;;;;13.50;99.90;;;;;;5062188;28;19931;-71
2022/07/05 01:36:46;;;;;;;;;;;13.50;99.90;;;;;;5058450;28;20019;-70
2022/07/05 01:39:13;;;;;;;;;;;13.50;99.90;;;;;;5060626;28;19933;-70
2022/07/05 01:41:42;;;;;;;;;;;13.50;99.90;;;;;;5058685;28;19990;-70
2022/07/05 01:44:08;;;;;;;;;;;13.40;99.90;;;;;;5058491;28;20025;-69
2022/07/05 01:46:37;;;;;;;;;;;13.40;99.90;;;;;;5059502;28;20023;-70
2022/07/05 01:49:05;;;;;;;;;;;13.40;99.90;;;;;;5063404;28;19994;-70
2022/07/05 01:51:34;;;;;;;;;;;13.40;99.90;;;;;;5057370;28;20020;-71
2022/07/05 01:54:01;;;;;;;;;;;13.30;99.90;;;;;;5060611;28;19964;-71
2022/07/05 01:56:28;;;;;;;;;;;13.40;99.90;;;;;;5058253;28;19924;-70
2022/07/05 01:58:57;;;;;;;;;;;13.30;99.90;;;;;;5056830;28;19971;-70
2022/07/05 02:01:34;;;;;;;;;;;13.30;99.90;;;;;;5059193;28;19935;-71
2022/07/05 02:04:01;;;;;;;;;;;13.30;99.90;;;;;;5060486;28;19925;-71
2022/07/05 02:06:28;;;;;;;;;;;13.30;99.90;;;;;;5058203;28;20019;-71
2022/07/05 02:08:54;;;;;;;;;;;13.30;99.90;;;;;;5059974;28;20027;-72
2022/07/05 02:11:21;;;;;;;;;;;13.20;99.90;;;;;;5060074;28;20090;-72
2022/07/05 02:13:48;;;;;;;;;;;13.20;99.90;;;;;;5057912;28;19966;-71
2022/07/05 02:16:16;;;;;;;;;;;13.20;99.90;;;;;;5063063;28;20007;-71
2022/07/05 02:18:42;;;;;;;;;;;13.10;99.90;;;;;;5054017;28;20355;-72
2022/07/05 02:21:09;;;;;;;;;;;13.10;99.90;;;;;;5061937;28;20081;-72
2022/07/05 02:23:36;;;;;;;;;;;13.10;99.90;;;;;;5062836;28;20030;-71
2022/07/05 02:26:03;;;;;;;;;;;13.10;99.90;;;;;;5062581;28;19924;-72
2022/07/05 02:28:29;;;;;;;;;;;13.10;99.90;;;;;;5058916;28;19986;-71
2022/07/05 02:30:56;;;;;;;;;;;13.10;99.90;;;;;;5061089;28;20031;-70
2022/07/05 02:33:24;;;;;;;;;;;13.10;99.90;;;;;;5062379;28;20015;-70
2022/07/05 02:35:51;;;;;;;;;;;13.00;99.90;;;;;;5061757;28;20023;-71
2022/07/05 02:38:17;;;;;;;;;;;13.00;99.90;;;;;;5052421;28;20023;-72
2022/07/05 02:40:44;;;;;;;;;;;12.90;99.90;;;;;;5061016;28;20015;-72
2022/07/05 02:43:11;;;;;;;;;;;12.80;99.90;;;;;;5068484;28;19924;-72
2022/07/05 02:45:37;;;;;;;;;;;12.80;99.90;;;;;;5066863;28;19935;-72
2022/07/05 02:48:04;;;;;;;;;;;12.70;99.90;;;;;;5062723;28;20019;-72
2022/07/05 02:50:32;;;;;;;;;;;12.80;99.90;;;;;;5058487;28;20366;-73
2022/07/05 02:52:59;;;;;;;;;;;12.80;99.90;;;;;;5058983;28;20008;-72
2022/07/05 02:55:26;;;;;;;;;;;12.70;99.90;;;;;;5065630;28;19930;-73
2022/07/05 02:57:52;;;;;;;;;;;12.80;99.90;;;;;;5061768;28;19925;-71
2022/07/05 03:00:19;;;;;;;;;;;12.70;99.90;;;;;;5064772;28;20023;-71
2022/07/05 03:02:46;;;;;;;;;;;12.70;99.90;;;;;;5068099;28;19931;-71
2022/07/05 03:05:12;;;;;;;;;;;12.80;99.90;;;;;;5067489;28;19980;-71
2022/07/05 03:07:40;;;;;;;;;;;12.80;99.90;;;;;;5059579;28;20439;-71
2022/07/05 03:10:07;;;;;;;;;;;12.70;99.90;;;;;;5062756;28;19976;-71
2022/07/05 03:12:34;;;;;;;;;;;12.70;99.90;;;;;;5071376;28;20011;-72
2022/07/05 03:15:01;;;;;;;;;;;12.70;99.90;;;;;;5063700;28;20498;-71
2022/07/05 03:17:27;;;;;;;;;;;12.60;99.90;;;;;;5056784;28;19929;-71
2022/07/05 03:19:56;;;;;;;;;;;12.60;99.90;;;;;;5058490;28;20100;-71
2022/07/05 03:22:22;;;;;;;;;;;12.60;99.90;;;;;;5068439;28;19934;-71
2022/07/05 03:24:50;;;;;;;;;;;12.60;99.90;;;;;;5065576;28;20030;-71
2022/07/05 03:27:17;;;;;;;;;;;12.60;99.90;;;;;;5068261;28;20376;-71
2022/07/05 03:29:44;;;;;;;;;;;12.60;99.90;;;;;;5069038;28;19964;-71
2022/07/05 03:32:11;;;;;;;;;;;12.60;99.90;;;;;;5070180;28;20299;-72
2022/07/05 03:34:38;;;;;;;;;;;12.60;99.90;;;;;;5074072;28;19964;-71
2022/07/05 03:37:05;;;;;;;;;;;12.60;99.90;;;;;;5067058;28;19925;-71
2022/07/05 03:39:31;;;;;;;;;;;12.60;99.90;;;;;;5066568;28;20354;-71
2022/07/05 03:42:00;;;;;;;;;;;12.60;99.90;;;;;;5071605;28;20015;-71
2022/07/05 03:44:27;;;;;;;;;;;12.60;99.90;;;;;;5067781;28;20563;-71
2022/07/05 03:46:53;;;;;;;;;;;12.60;99.90;;;;;;5069541;28;20395;-71
2022/07/05 03:49:20;;;;;;;;;;;12.60;99.90;;;;;;5061117;28;20342;-71
2022/07/05 03:51:47;;;;;;;;;;;12.50;99.90;;;;;;5070852;28;19995;-71
2022/07/05 03:54:13;;;;;;;;;;;12.60;99.90;;;;;;5070646;28;19960;-71
2022/07/05 03:56:40;;;;;;;;;;;12.50;99.90;;;;;;5069060;28;20022;-71
2022/07/05 03:59:08;;;;;;;;;;;12.60;99.90;;;;;;5070456;28;19925;-72
2022/07/05 04:01:35;;;;;;;;;;;12.60;99.90;;;;;;5062054;28;19931;-73
2022/07/05 04:04:01;;;;;;;;;;;12.60;99.90;;;;;;5062490;28;19931;-69
2022/07/05 04:06:28;;;;;;;;;;;12.70;99.90;;;;;;5068080;28;20291;-70
2022/07/05 04:08:55;;;;;;;;;;;12.70;99.90;;;;;;5068381;28;19925;-70
2022/07/05 04:11:22;;;;;;;;;;;12.70;99.90;;;;;;5068843;28;19929;-72
2022/07/05 04:13:48;;;;;;;;;;;12.70;99.90;;;;;;5068377;28;20051;-71
2022/07/05 04:16:16;;;;;;;;;;;12.80;99.90;;;;;;5062560;28;20024;-72
2022/07/05 04:18:43;;;;;;;;;;;12.80;99.90;;;;;;5070105;28;19925;-71
2022/07/05 04:21:10;;;;;;;;;;;12.90;99.90;;;;;;5071508;28;19930;-74
2022/07/05 04:23:36;;;;;;;;;;;12.90;99.90;;;;;;5062558;28;20119;-75
2022/07/05 04:26:03;;;;;;;;;;;12.90;99.90;;;;;;5057131;28;19924;-73
2022/07/05 04:28:30;;;;;;;;;;;12.90;99.90;;;;;;5069818;28;20016;-74
2022/07/05 04:30:57;;;;;;;;;;;13.00;99.90;;;;;;5059222;28;20401;-74
2022/07/05 04:33:25;;;;;;;;;;;13.00;99.90;;;;;;5066755;28;19982;-75
2022/07/05 04:35:52;;;;;;;;;;;13.10;99.90;;;;;;5070862;28;20447;-74
2022/07/05 04:38:19;;;;;;;;;;;13.10;99.90;;;;;;5063176;28;19992;-74
2022/07/05 04:40:45;;;;;;;;;;;13.00;99.90;;;;;;5063688;28;19963;-75
2022/07/05 04:43:12;;;;;;;;;;;13.10;99.90;;;;;;5067972;28;20011;-75
2022/07/05 04:45:39;;;;;;;;;;;13.10;99.90;;;;;;5066077;28;19929;-76
2022/07/05 04:48:06;;;;;;;;;;;13.10;99.90;;;;;;5061162;28;20019;-75
2022/07/05 04:50:34;;;;;;;;;;;13.10;99.90;;;;;;5061080;28;20003;-75
2022/07/05 04:53:01;;;;;;;;;;;13.20;99.90;;;;;;5058655;28;19932;-75
2022/07/05 04:55:27;;;;;;;;;;;13.30;99.90;;;;;;5065770;28;20016;-74
2022/07/05 04:57:54;;;;;;;;;;;13.30;99.90;;;;;;5063742;28;19928;-74
2022/07/05 05:00:21;;;;;;;;;;;13.40;99.90;;;;;;5066372;28;19975;-74
2022/07/05 05:02:47;;;;;;;;;;;13.50;99.90;;;;;;5069929;28;20015;-74
2022/07/05 05:05:14;;;;;;;;;;;13.60;99.90;;;;;;5058733;28;20028;-74
2022/07/05 05:07:43;;;;;;;;;;;13.60;99.90;;;;;;5065669;28;19940;-74
2022/07/05 05:10:10;;;;;;;;;;;13.60;99.90;;;;;;5059398;28;20020;-74
2022/07/05 05:12:37;;;;;;;;;;;13.70;99.90;;;;;;5057172;28;19978;-74
2022/07/05 05:15:08;;;;;;;;;;;13.80;99.90;;;;;;5057013;28;20005;-72
2022/07/05 05:17:35;;;;;;;;;;;14.00;99.90;;;;;;5061790;28;20264;-71
2022/07/05 05:20:02;;;;;;;;;;;14.10;99.90;;;;;;5067576;28;19925;-71
2022/07/05 05:22:29;;;;;;;;;;;14.30;99.90;;;;;;5063442;28;20162;-71
2022/07/05 05:24:57;;;;;;;;;;;14.50;99.90;;;;;;5065003;28;19978;-72
2022/07/05 05:27:24;;;;;;;;;;;14.70;99.90;;;;;;5063504;28;20055;-72
2022/07/05 05:29:50;;;;;;;;;;;14.90;99.90;;;;;;5065248;28;20364;-71
2022/07/05 05:32:17;;;;;;;;;;;15.00;99.90;;;;;;5065177;28;20375;-72
2022/07/05 05:34:43;;;;;;;;;;;15.00;99.90;;;;;;5064985;28;20022;-71
2022/07/05 05:37:10;;;;;;;;;;;15.00;99.90;;;;;;5058941;28;19924;-74
2022/07/05 05:39:37;;;;;;;;;;;15.00;99.90;;;;;;5068897;28;20007;-74
2022/07/05 05:42:06;;;;;;;;;;;14.90;99.90;;;;;;5066717;28;19974;-74
2022/07/05 05:44:32;;;;;;;;;;;15.00;99.90;;;;;;5064088;28;19963;-72
2022/07/05 05:46:59;;;;;;;;;;;15.00;99.90;;;;;;5059145;28;20014;-72
2022/07/05 05:49:26;;;;;;;;;;;15.10;99.90;;;;;;5069602;28;19931;-71
2022/07/05 05:51:52;;;;;;;;;;;15.20;99.90;;;;;;5060020;28;19974;-70
2022/07/05 05:54:19;;;;;;;;;;;15.20;99.90;;;;;;5063371;28;19982;-72
2022/07/05 05:56:46;;;;;;;;;;;15.30;99.90;;;;;;5066769;28;19932;-71
2022/07/05 05:59:14;;;;;;;;;;;15.40;99.90;;;;;;5065843;28;19924;-71
2022/07/05 06:01:41;;;;;;;;;;;15.60;99.90;;;;;;5062692;28;20016;-70
2022/07/05 06:04:07;;;;;;;;;;;15.90;99.90;;;;;;5062650;28;19925;-70
2022/07/05 06:06:34;;;;;;;;;;;17.60;99.90;;;;;;5063211;28;19963;-69
2022/07/05 06:09:01;;;;;;;;;;;20.10;99.90;;;;;;5063736;28;19976;-72
2022/07/05 06:11:27;;;;;;;;;;;22.40;96.60;;;;;;5053832;28;20354;-72
2022/07/05 06:13:54;;;;;;;;;;;23.80;85.70;;;;;;5068877;28;19960;-72
2022/07/05 06:16:22;;;;;;;;;;;23.80;77.30;;;;;;5069557;28;20463;-72
2022/07/05 06:18:49;;;;;;;;;;;23.30;76.80;;;;;;5059418;28;19924;-71
2022/07/05 06:21:15;;;;;;;;;;;22.50;78.30;;;;;;5061493;28;19929;-71
2022/07/05 06:23:42;;;;;;;;;;;22.60;80.70;;;;;;5058750;28;19947;-74
2022/07/05 06:26:09;;;;;;;;;;;22.00;78.70;;;;;;5065345;28;20015;-72
2022/07/05 06:28:36;;;;;;;;;;;20.90;84.70;;;;;;5062052;28;19975;-72
2022/07/05 06:31:02;;;;;;;;;;;20.80;88.90;;;;;;5064659;28;19963;-72
2022/07/05 06:33:30;;;;;;;;;;;20.90;89.70;;;;;;5064091;28;19932;-72
2022/07/05 06:35:57;;;;;;;;;;;21.10;91.10;;;;;;5063645;28;19971;-72
2022/07/05 06:38:24;;;;;;;;;;;21.40;89.00;;;;;;5059547;28;20011;-72
2022/07/05 06:40:51;;;;;;;;;;;22.00;88.70;;;;;;5052700;28;20011;-73
2022/07/05 06:43:17;;;;;;;;;;;22.00;88.60;;;;;;5059096;28;19925;-73
2022/07/05 06:45:44;;;;;;;;;;;23.30;84.20;;;;;;5059179;28;20375;-72
2022/07/05 06:48:11;;;;;;;;;;;24.30;77.50;;;;;;5065153;28;20015;-72
2022/07/05 06:50:40;;;;;;;;;;;24.50;73.70;;;;;;5053820;28;20011;-73
2022/07/05 06:53:07;;;;;;;;;;;25.80;71.40;;;;;;5066914;28;20011;-72
2022/07/05 06:55:34;;;;;;;;;;;25.80;64.20;;;;;;5054062;28;20280;-73
2022/07/05 06:58:02;;;;;;;;;;;26.70;59.70;;;;;;5058861;28;20027;-72
2022/07/05 07:00:29;;;;;;;;;;;28.00;54.60;;;;;;5056868;28;20540;-72
2022/07/05 07:02:56;;;;;;;;;;;29.00;49.40;;;;;;5063000;28;20008;-72
2022/07/05 07:05:23;;;;;;;;;;;29.20;44.00;;;;;;5064209;28;19980;-72
2022/07/05 07:10:35;;;;;;;;;;;29.20;40.60;;;;;;5059721;28;19940;-73
2022/07/05 07:13:02;;;;;;;;;;;29.20;40.70;;;;;;5063687;28;20007;-73
2022/07/05 07:15:29;;;;;;;;;;;28.60;41.30;;;;;;5062983;28;20019;-73
2022/07/05 07:17:56;;;;;;;;;;;28.60;39.50;;;;;;5064870;28;19925;-73
2022/07/05 07:20:23;;;;;;;;;;;28.20;40.30;;;;;;5060911;28;19931;-73
2022/07/05 07:22:51;;;;;;;;;;;27.60;40.70;;;;;;5060983;28;19928;-73
2022/07/05 07:25:20;;;;;;;;;;;27.00;42.10;;;;;;5062005;28;20314;-73
2022/07/05 07:27:47;;;;;;;;;;;26.00;44.30;;;;;;5062497;28;19925;-73
2022/07/05 07:30:15;;;;;;;;;;;25.10;47.50;;;;;;5056895;28;19990;-73
2022/07/05 07:32:42;;;;;;;;;;;24.70;47.60;;;;;;5061877;28;19932;-73
2022/07/05 07:35:09;;;;;;;;;;;24.20;49.70;;;;;;5065996;28;19925;-73
2022/07/05 07:37:36;;;;;;;;;;;24.00;52.10;;;;;;5065641;28;20011;-71
2022/07/05 07:40:05;;;;;;;;;;;24.40;52.10;;;;;;5055253;28;19960;-73
2022/07/05 07:42:32;;;;;;;;;;;25.10;51.60;;;;;;5064321;28;19935;-73
2022/07/05 07:45:03;;;;;;;;;;;25.00;50.00;;;;;;5063588;28;20454;-72
2022/07/05 07:47:29;;;;;;;;;;;25.70;50.70;;;;;;5069471;28;19929;-73
2022/07/05 07:49:56;;;;;;;;;;;25.90;46.40;;;;;;5062713;28;20466;-73
2022/07/05 07:52:23;;;;;;;;;;;24.80;46.30;;;;;;5055212;28;20031;-73
2022/07/05 07:54:50;;;;;;;;;;;24.30;48.50;;;;;;5066034;28;20022;-73
2022/07/05 07:57:18;;;;;;;;;;;24.00;50.40;;;;;;5069222;28;20475;-73
2022/07/05 07:59:45;;;;;;;;;;;23.60;50.50;;;;;;5066670;28;20011;-73
2022/07/05 08:02:11;;;;;;;;;;;23.30;52.00;;;;;;5063850;28;19932;-73
2022/07/05 08:04:38;;;;;;;;;;;23.40;52.90;;;;;;5069969;28;20427;-72
2022/07/05 08:07:05;;;;;;;;;;;24.10;51.80;;;;;;5064498;28;20396;-72
2022/07/05 08:09:31;;;;;;;;;;;24.40;49.50;;;;;;5078323;28;19946;-73
2022/07/05 08:11:58;;;;;;;;;;;26.30;46.50;;;;;;5060039;28;19971;-72
2022/07/05 08:14:26;;;;;;;;;;;27.70;42.80;;;;;;5057748;28;20375;-72
2022/07/05 08:16:53;;;;;;;;;;;28.40;38.30;;;;;;5059420;28;19935;-72
2022/07/05 08:22:07;;;;;;;;;;;28.00;36.50;;;;;;5059093;28;19932;-72
2022/07/05 08:24:33;;;;;;;;;;;28.40;36.50;;;;;;5059979;28;19931;-72
2022/07/05 08:27:00;;;;;;;;;;;28.30;34.30;;;;;;5060232;28;20019;-72
2022/07/05 08:29:28;;;;;;;;;;;28.50;34.60;;;;;;5063230;28;19960;-72
2022/07/05 08:31:55;;;;;;;;;;;29.10;31.30;;;;;;5063339;28;20011;-72
2022/07/05 08:34:21;;;;;;;;;;;29.10;31.90;;;;;;5063277;28;20071;-72
2022/07/05 08:36:48;;;;;;;;;;;28.90;31.20;;;;;;5053252;28;20019;-72
2022/07/05 08:39:15;;;;;;;;;;;29.10;30.30;;;;;;5060696;28;20431;-72
2022/07/05 08:41:43;;;;;;;;;;;28.90;30.70;;;;;;5059554;28;20375;-72
2022/07/05 08:44:10;;;;;;;;;;;28.70;30.80;;;;;;5065909;28;20019;-72
2022/07/05 08:46:40;;;;;;;;;;;27.90;32.90;;;;;;5069789;28;19967;-72
2022/07/05 08:49:07;;;;;;;;;;;26.90;33.60;;;;;;5069954;28;19924;-73
2022/07/05 08:51:34;;;;;;;;;;;26.00;36.20;;;;;;5069513;28;20003;-72
2022/07/05 08:54:01;;;;;;;;;;;25.80;37.60;;;;;;5064004;28;19929;-73
2022/07/05 08:56:28;;;;;;;;;;;25.70;37.60;;;;;;5062037;28;20360;-73
2022/07/05 08:58:55;;;;;;;;;;;24.90;39.60;;;;;;5064038;28;20230;-72
2022/07/05 09:01:26;;;;;;;;;;;24.50;42.00;;;;;;5068128;28;19924;-73
2022/07/05 09:03:54;;;;;;;;;;;24.50;43.00;;;;;;5069240;28;20423;-74
2022/07/05 09:06:22;;;;;;;;;;;24.90;43.40;;;;;;5067879;28;19935;-74
2022/07/05 09:08:51;;;;;;;;;;;25.30;43.80;;;;;;5069174;28;20276;-72
2022/07/05 09:11:19;;;;;;;;;;;27.70;38.40;;;;;;5067647;28;20005;-73
2022/07/05 09:13:49;;;;;;;;;;;28.80;34.40;;;;;;5067570;28;20031;-73
2022/07/05 09:16:16;;;;;;;;;;;27.70;34.70;;;;;;5062520;28;20007;-72
2022/07/05 09:18:44;;;;;;;;;;;26.90;37.00;;;;;;5067258;28;19967;-73
2022/07/05 09:21:16;;;;;;;;;;;26.70;36.30;;;;;;5066002;28;19928;-74
2022/07/05 09:23:43;;;;;;;;;;;26.30;37.80;;;;;;5064121;28;19963;-73
2022/07/05 09:26:10;;;;;;;;;;;25.40;39.00;;;;;;5067277;28;20448;-73
2022/07/05 09:28:37;;;;;;;;;;;26.50;37.90;;;;;;5066841;28;19924;-73
2022/07/05 09:31:05;;;;;;;;;;;26.90;34.20;;;;;;5064006;28;19925;-74
2022/07/05 09:33:32;;;;;;;;;;;25.80;36.50;;;;;;5066133;28;19925;-72
2022/07/05 09:35:59;;;;;;;;;;;25.30;37.10;;;;;;5065985;28;19931;-74
2022/07/05 09:38:27;;;;;;;;;;;24.60;40.10;;;;;;5065873;28;19924;-73
2022/07/05 09:40:55;;;;;;;;;;;24.40;40.50;;;;;;5065601;28;19931;-73
2022/07/05 09:43:22;;;;;;;;;;;24.00;41.90;;;;;;5065456;28;19931;-73
2022/07/05 09:45:57;;;;;;;;;;;24.00;42.60;;;;;;5063369;28;19960;-75
2022/07/05 09:48:24;;;;;;;;;;;23.90;43.00;;;;;;5067230;28;19924;-73
2022/07/05 09:50:52;;;;;;;;;;;23.70;43.10;;;;;;5065129;28;19924;-72
2022/07/05 09:53:19;;;;;;;;;;;24.20;42.50;;;;;;5069029;28;19970;-72
2022/07/05 09:56:03;;;;;;;;;;;24.50;41.40;;;;;;5071344;28;19924;-72
2022/07/05 09:58:30;;;;;;;;;;;24.80;41.40;;;;;;5068723;28;19991;-74
2022/07/05 10:00:57;;;;;;;;;;;24.70;36.30;;;;;;5060111;28;19924;-73
2022/07/05 10:03:24;;;;;;;;;;;24.40;37.00;;;;;;5070959;28;19925;-73
2022/07/05 10:05:51;;;;;;;;;;;24.10;40.30;;;;;;5064744;28;19924;-73
2022/07/05 10:08:21;;;;;;;;;;;24.00;40.30;;;;;;5053968;28;19928;-74
2022/07/05 10:10:51;;;;;;;;;;;24.10;40.40;;;;;;5067535;28;19978;-74
2022/07/05 10:13:19;;;;;;;;;;;24.10;40.50;;;;;;5069106;28;19979;-73
2022/07/05 10:15:46;;;;;;;;;;;25.20;39.80;;;;;;5064346;28;19931;-74
2022/07/05 10:18:13;;;;;;;;;;;26.20;37.30;;;;;;5068346;28;19924;-74
2022/07/05 10:20:41;;;;;;;;;;;25.80;38.20;;;;;;5058768;28;19931;-72
2022/07/05 10:23:08;;;;;;;;;;;25.10;36.50;;;;;;5066994;28;20031;-74
2022/07/05 10:25:36;;;;;;;;;;;24.90;37.60;;;;;;5062377;28;20019;-74
2022/07/05 10:28:03;;;;;;;;;;;24.80;36.60;;;;;;5062449;28;19928;-73
2022/07/05 10:30:32;;;;;;;;;;;24.90;37.60;;;;;;5064691;28;19924;-74
2022/07/05 10:33:00;;;;;;;;;;;25.30;35.30;;;;;;5057632;28;19948;-73
2022/07/05 10:35:27;;;;;;;;;;;25.20;35.70;;;;;;5060817;28;19932;-74
2022/07/05 10:37:55;;;;;;;;;;;25.10;33.30;;;;;;5057925;28;19925;-73
2022/07/05 10:40:21;;;;;;;;;;;25.00;33.60;;;;;;5058148;28;20034;-73
2022/07/05 10:42:52;;;;;;;;;;;24.50;34.70;;;;;;5068213;28;20003;-74
2022/07/05 10:45:23;;;;;;;;;;;24.00;36.90;;;;;;5061625;28;19933;-73
2022/07/05 10:48:05;;;;;;;;;;;24.20;36.50;;;;;;5058441;28;19978;-73
2022/07/05 10:50:43;;;;;;;;;;;24.10;37.00;;;;;;5063609;28;19924;-73
2022/07/05 10:53:10;;;;;;;;;;;23.80;39.30;;;;;;5055836;28;19956;-73
2022/07/05 10:55:47;;;;;;;;;;;24.00;39.60;;;;;;5057427;28;19998;-73
2022/07/05 10:58:21;;;;;;;;;;;24.20;38.30;;;;;;5061107;28;19978;-73
2022/07/05 11:00:49;;;;;;;;;;;24.10;38.00;;;;;;5059395;28;19968;-73
2022/07/05 11:03:30;;;;;;;;;;;23.40;40.40;;;;;;5066108;28;19932;-72
2022/07/05 11:06:00;;;;;;;;;;;23.20;40.50;;;;;;5054645;28;19982;-72
2022/07/05 11:08:27;;;;;;;;;;;23.50;40.60;;;;;;5063222;28;19924;-73
2022/07/05 11:11:12;;;;;;;;;;;23.50;40.70;;;;;;5057039;28;19925;-73
2022/07/05 11:13:40;;;;;;;;;;;23.80;40.20;;;;;;5058139;28;19990;-73
2022/07/05 11:16:23;;;;;;;;;;;23.50;41.00;;;;;;5060148;28;19936;-73
2022/07/05 11:18:52;;;;;;;;;;;23.10;40.00;;;;;;5056478;28;20008;-73
2022/07/05 11:21:21;;;;;;;;;;;23.20;39.60;;;;;;5064747;28;20303;-73
2022/07/05 11:23:48;;;;;;;;;;;23.80;38.80;;;;;;5069764;28;20003;-73
2022/07/05 11:26:18;;;;;;;;;;;24.20;37.50;;;;;;5073010;28;19975;-72
2022/07/05 11:28:45;;;;;;;;;;;24.20;37.10;;;;;;5065194;28;19937;-72
2022/07/05 11:31:13;;;;;;;;;;;24.10;37.40;;;;;;5067786;28;19932;-72
2022/07/05 11:33:42;;;;;;;;;;;24.00;36.90;;;;;;5052300;28;20399;-71
2022/07/05 11:36:25;;;;;;;;;;;24.30;35.90;;;;;;5053354;28;19947;-73
2022/07/05 11:39:12;;;;;;;;;;;24.20;35.30;;;;;;5063923;28;20401;-72
2022/07/05 11:41:39;;;;;;;;;;;24.70;33.30;;;;;;5069263;28;20024;-73
2022/07/05 11:44:07;;;;;;;;;;;24.90;33.20;;;;;;5073768;28;19964;-71
2022/07/05 11:46:34;;;;;;;;;;;24.80;32.80;;;;;;5072924;28;20342;-73
2022/07/05 11:49:01;;;;;;;;;;;24.30;36.90;;;;;;5072549;28;19928;-71
2022/07/05 11:51:30;;;;;;;;;;;24.20;37.90;;;;;;5063323;28;19956;-73
2022/07/05 11:53:57;;;;;;;;;;;24.10;38.60;;;;;;5064925;28;20024;-72
2022/07/05 11:56:24;;;;;;;;;;;24.40;38.50;;;;;;5073124;28;20353;-73
2022/07/05 11:58:51;;;;;;;;;;;24.30;37.90;;;;;;5070918;28;20019;-72
2022/07/05 12:01:18;;;;;;;;;;;24.30;38.20;;;;;;5062890;28;19925;-69
2022/07/05 12:03:53;;;;;;;;;;;23.90;38.60;;;;;;5056261;28;19924;-70
2022/07/05 12:06:20;;;;;;;;;;;23.60;39.50;;;;;;5065115;28;20015;-70
2022/07/05 12:08:48;;;;;;;;;;;23.70;37.60;;;;;;5072939;28;19928;-72
2022/07/05 12:13:59;;;;;;;;;;;23.60;38.90;;;;;;5063848;28;20029;-74
2022/07/05 12:16:26;;;;;;;;;;;23.40;40.50;;;;;;5064549;28;19973;-72
2022/07/05 12:18:56;;;;;;;;;;;23.60;39.20;;;;;;5072935;28;19925;-72
2022/07/05 12:21:23;;;;;;;;;;;23.10;39.50;;;;;;5064556;28;20075;-73
2022/07/05 12:23:52;;;;;;;;;;;23.30;39.80;;;;;;5054048;28;19936;-73
2022/07/05 12:26:21;;;;;;;;;;;23.40;38.90;;;;;;5059558;28;19975;-75
2022/07/05 12:28:48;;;;;;;;;;;23.50;38.20;;;;;;5064528;28;19986;-74
2022/07/05 12:31:16;;;;;;;;;;;23.50;38.60;;;;;;5057606;28;19993;-72
2022/07/05 12:33:42;;;;;;;;;;;23.20;38.30;;;;;;5061937;28;20003;-73
2022/07/05 12:36:11;;;;;;;;;;;22.90;39.50;;;;;;5060572;28;19924;-73
2022/07/05 12:38:38;;;;;;;;;;;23.00;38.20;;;;;;5061124;28;20027;-72
2022/07/05 12:41:08;;;;;;;;;;;23.10;37.80;;;;;;5062049;28;19929;-73
2022/07/05 12:43:49;;;;;;;;;;;23.50;38.10;;;;;;5059528;28;19938;-74
2022/07/05 12:46:15;;;;;;;;;;;23.40;37.10;;;;;;5059344;28;19931;-74
2022/07/05 12:48:42;;;;;;;;;;;23.50;37.60;;;;;;5057930;28;19972;-72
2022/07/05 12:51:10;;;;;;;;;;;22.80;38.30;;;;;;5057283;28;19974;-72
2022/07/05 12:59:15;;;;;;;;;;;23.80;37.10;;;;;;5063776;28;20438;-74
2022/07/05 13:01:42;;;;;;;;;;;24.30;36.80;;;;;;5057787;28;19939;-74
2022/07/05 13:04:10;;;;;;;;;;;24.40;36.80;;;;;;5059931;28;20380;-74
2022/07/05 13:06:44;;;;;;;;;;;24.40;35.40;;;;;;5058001;28;19925;-74
2022/07/05 13:09:11;;;;;;;;;;;24.20;34.30;;;;;;5055168;28;19928;-74
2022/07/05 13:11:39;;;;;;;;;;;23.50;35.70;;;;;;5060691;28;19925;-72
2022/07/05 13:14:06;;;;;;;;;;;23.60;34.90;;;;;;5063247;28;19925;-72
2022/07/05 13:16:33;;;;;;;;;;;23.70;34.40;;;;;;5065298;28;19976;-72
2022/07/05 13:19:09;;;;;;;;;;;23.80;34.70;;;;;;5059361;28;20026;-72
2022/07/05 13:21:36;;;;;;;;;;;23.80;33.60;;;;;;5056452;28;20445;-72
2022/07/05 13:24:03;;;;;;;;;;;23.80;35.40;;;;;;5059942;28;19928;-72
2022/07/05 13:26:30;;;;;;;;;;;24.00;34.60;;;;;;5063744;28;20025;-72
2022/07/05 13:28:58;;;;;;;;;;;23.90;33.90;;;;;;5058878;28;20019;-72
2022/07/05 13:31:25;;;;;;;;;;;23.60;34.80;;;;;;5058495;28;20324;-72
2022/07/05 13:33:51;;;;;;;;;;;23.70;34.00;;;;;;5066341;22;20210;-72
2022/07/05 13:36:18;;;;;;;;;;;24.00;33.70;;;;;;5079667;28;19928;-73
2022/07/05 13:38:45;;;;;;;;;;;24.00;32.60;;;;;;5083822;28;19931;-73
2022/07/05 13:41:11;;;;;;;;;;;23.70;33.30;;;;;;5085669;28;20420;-73
2022/07/05 13:43:39;;;;;;;;;;;23.30;33.50;;;;;;5078311;28;19979;-72
2022/07/05 13:46:07;;;;;;;;;;;23.20;33.50;;;;;;5090392;22;19940;-72
2022/07/05 13:48:34;;;;;;;;;;;22.80;35.10;;;;;;5084448;28;19928;-71
2022/07/05 13:51:00;;;;;;;;;;;22.40;35.80;;;;;;5072416;28;19940;-72
2022/07/05 13:53:28;;;;;;;;;;;22.60;35.90;;;;;;5058763;28;19925;-73
2022/07/05 13:55:55;;;;;;;;;;;22.70;34.50;;;;;;5057952;28;20406;-71
2022/07/05 13:58:22;;;;;;;;;;;22.70;34.90;;;;;;5058877;28;19964;-73
2022/07/05 14:00:48;;;;;;;;;;;22.60;34.50;;;;;;5056154;28;19925;-72
2022/07/05 14:03:17;;;;;;;;;;;22.40;35.20;;;;;;5059893;28;20007;-73
2022/07/05 14:05:44;;;;;;;;;;;22.30;35.50;;;;;;5059802;28;20018;-73
2022/07/05 14:08:12;;;;;;;;;;;22.40;35.50;;;;;;5058590;28;20019;-75
2022/07/05 14:10:38;;;;;;;;;;;22.30;35.60;;;;;;5058509;28;20395;-73
2022/07/05 14:13:05;;;;;;;;;;;22.30;36.40;;;;;;5066308;28;19965;-73
2022/07/05 14:15:32;;;;;;;;;;;22.00;36.70;;;;;;5059309;28;19932;-73
2022/07/05 14:18:01;;;;;;;;;;;21.90;36.80;;;;;;5061767;28;20364;-73
2022/07/05 14:20:30;;;;;;;;;;;21.90;37.20;;;;;;5064240;28;19943;-73
2022/07/05 14:22:56;;;;;;;;;;;22.00;37.70;;;;;;5065248;28;19924;-75
2022/07/05 14:25:23;;;;;;;;;;;22.00;36.70;;;;;;5065315;28;20353;-71
2022/07/05 14:27:50;;;;;;;;;;;21.90;36.80;;;;;;5064844;28;19985;-72
2022/07/05 14:30:17;;;;;;;;;;;22.10;35.50;;;;;;5064782;28;20035;-74
2022/07/05 14:32:44;;;;;;;;;;;22.20;35.00;;;;;;5064787;28;20306;-73